sensor_id;sensor_type;location;lat;lon;timestamp;temperature;humidity
10388;DHT22;5240;51.128;4.566;2023-05-07T00:01:38;15.90;99.90
10388;DHT22;5240;51.128;4.566;2023-05-07T00:04:05;15.90;99.90
10388;DHT22;5240;51.128;4.566;2023-05-07T00:06:33;15.90;99.90
10388;DHT22;5240;51.128;4.566;2023-05-07T00:09:00;15.90;99.90
10388;DHT22;5240;51.128;4.566;2023-05-07T00:11:28;15.90;99.90
10388;DHT22;5240;51.128;4.566;2023-05-07T00:13:55;14.70;99.90
10388;DHT22;5240;51.128;4.566;2023-05-07T00:16:22;15.80;99.90
10388;DHT22;5240;51.128;4.566;2023-05-07T00:18:49;15.80;99.90
10388;DHT22;5240;51.128;4.566;2023-05-07T00:21:17;15.80;99.90
10388;DHT22;5240;51.128;4.566;2023-05-07T00:23:44;15.20;99.90
10388;DHT22;5240;51.128;4.566;2023-05-07T00:26:11;15.80;99.90
10388;DHT22;5240;51.128;4.566;2023-05-07T00:28:39;15.70;99.90
10388;DHT22;5240;51.128;4.566;2023-05-07T00:31:06;15.80;99.90
10388;DHT22;5240;51.128;4.566;2023-05-07T00:33:33;15.90;99.90
10388;DHT22;5240;51.128;4.566;2023-05-07T00:36:00;15.80;99.90
10388;DHT22;5240;51.128;4.566;2023-05-07T00:38:27;15.80;99.90
10388;DHT22;5240;51.128;4.566;2023-05-07T00:40:54;15.80;99.90
10388;DHT22;5240;51.128;4.566;2023-05-07T00:43:21;15.90;99.90
10388;DHT22;5240;51.128;4.566;2023-05-07T00:45:50;15.80;99.90
10388;DHT22;5240;51.128;4.566;2023-05-07T00:48:17;15.80;99.90
10388;DHT22;5240;51.128;4.566;2023-05-07T00:50:45;15.80;99.90
10388;DHT22;5240;51.128;4.566;2023-05-07T00:53:12;16.60;99.90
10388;DHT22;5240;51.128;4.566;2023-05-07T00:55:39;15.80;99.90
10388;DHT22;5240;51.128;4.566;2023-05-07T00:58:06;15.80;99.90
10388;DHT22;5240;51.128;4.566;2023-05-07T01:00:34;15.80;99.90
10388;DHT22;5240;51.128;4.566;2023-05-07T01:03:03;15.80;99.90
10388;DHT22;5240;51.128;4.566;2023-05-07T01:05:30;15.70;99.90
10388;DHT22;5240;51.128;4.566;2023-05-07T01:07:57;15.70;99.90
10388;DHT22;5240;51.128;4.566;2023-05-07T01:10:25;15.70;99.90
10388;DHT22;5240;51.128;4.566;2023-05-07T01:12:52;15.80;99.90
10388;DHT22;5240;51.128;4.566;2023-05-07T01:15:20;15.80;99.90
10388;DHT22;5240;51.128;4.566;2023-05-07T01:17:47;15.80;99.90
10388;DHT22;5240;51.128;4.566;2023-05-07T01:20:16;15.80;99.90
10388;DHT22;5240;51.128;4.566;2023-05-07T01:22:45;15.80;99.90
10388;DHT22;5240;51.128;4.566;2023-05-07T01:25:12;15.70;99.90
10388;DHT22;5240;51.128;4.566;2023-05-07T01:27:41;15.70;99.90
10388;DHT22;5240;51.128;4.566;2023-05-07T01:30:09;15.70;99.90
10388;DHT22;5240;51.128;4.566;2023-05-07T01:32:41;15.60;99.90
10388;DHT22;5240;51.128;4.566;2023-05-07T01:35:11;15.70;99.90
10388;DHT22;5240;51.128;4.566;2023-05-07T01:37:39;15.60;99.90
10388;DHT22;5240;51.128;4.566;2023-05-07T01:40:09;15.60;99.90
10388;DHT22;5240;51.128;4.566;2023-05-07T01:42:36;15.60;99.90
10388;DHT22;5240;51.128;4.566;2023-05-07T01:45:04;15.50;99.90
10388;DHT22;5240;51.128;4.566;2023-05-07T01:47:32;15.40;99.90
10388;DHT22;5240;51.128;4.566;2023-05-07T01:50:00;15.40;99.90
10388;DHT22;5240;51.128;4.566;2023-05-07T01:52:28;15.40;99.90
10388;DHT22;5240;51.128;4.566;2023-05-07T01:54:55;15.40;99.90
10388;DHT22;5240;51.128;4.566;2023-05-07T01:57:24;15.40;99.90
10388;DHT22;5240;51.128;4.566;2023-05-07T01:59:51;15.30;99.90
10388;DHT22;5240;51.128;4.566;2023-05-07T02:02:18;15.20;99.90
10388;DHT22;5240;51.128;4.566;2023-05-07T02:04:44;15.10;99.90
10388;DHT22;5240;51.128;4.566;2023-05-07T02:07:11;15.10;99.90
10388;DHT22;5240;51.128;4.566;2023-05-07T02:09:38;15.00;99.90
10388;DHT22;5240;51.128;4.566;2023-05-07T02:12:05;15.10;99.90
10388;DHT22;5240;51.128;4.566;2023-05-07T02:14:34;15.10;99.90
10388;DHT22;5240;51.128;4.566;2023-05-07T02:17:01;15.00;99.90
10388;DHT22;5240;51.128;4.566;2023-05-07T02:19:28;15.00;99.90
10388;DHT22;5240;51.128;4.566;2023-05-07T02:21:55;15.00;99.90
10388;DHT22;5240;51.128;4.566;2023-05-07T02:24:22;15.00;99.90
10388;DHT22;5240;51.128;4.566;2023-05-07T02:26:49;15.10;99.90
10388;DHT22;5240;51.128;4.566;2023-05-07T02:29:16;15.10;99.90
10388;DHT22;5240;51.128;4.566;2023-05-07T02:31:44;15.10;99.90
10388;DHT22;5240;51.128;4.566;2023-05-07T02:34:16;15.10;99.90
10388;DHT22;5240;51.128;4.566;2023-05-07T02:36:43;15.20;99.90
10388;DHT22;5240;51.128;4.566;2023-05-07T02:39:11;15.20;99.90
10388;DHT22;5240;51.128;4.566;2023-05-07T02:41:38;15.20;99.90
10388;DHT22;5240;51.128;4.566;2023-05-07T02:44:05;15.20;99.90
10388;DHT22;5240;51.128;4.566;2023-05-07T02:46:32;15.20;99.90
10388;DHT22;5240;51.128;4.566;2023-05-07T02:49:00;15.10;99.90
10388;DHT22;5240;51.128;4.566;2023-05-07T02:51:30;15.10;99.90
10388;DHT22;5240;51.128;4.566;2023-05-07T02:53:57;15.10;99.90
10388;DHT22;5240;51.128;4.566;2023-05-07T02:56:25;15.10;99.90
10388;DHT22;5240;51.128;4.566;2023-05-07T02:58:52;15.10;99.90
10388;DHT22;5240;51.128;4.566;2023-05-07T03:01:20;15.10;99.90
10388;DHT22;5240;51.128;4.566;2023-05-07T03:03:47;15.10;99.90
10388;DHT22;5240;51.128;4.566;2023-05-07T03:06:15;15.10;99.90
10388;DHT22;5240;51.128;4.566;2023-05-07T03:08:43;15.20;99.90
10388;DHT22;5240;51.128;4.566;2023-05-07T03:11:10;15.20;99.90
10388;DHT22;5240;51.128;4.566;2023-05-07T03:13:37;15.10;99.90
10388;DHT22;5240;51.128;4.566;2023-05-07T03:16:05;15.10;99.90
10388;DHT22;5240;51.128;4.566;2023-05-07T03:18:32;15.30;99.90
10388;DHT22;5240;51.128;4.566;2023-05-07T03:20:59;15.30;99.90
10388;DHT22;5240;51.128;4.566;2023-05-07T03:23:27;15.40;99.90
10388;DHT22;5240;51.128;4.566;2023-05-07T03:25:54;15.40;99.90
10388;DHT22;5240;51.128;4.566;2023-05-07T03:28:21;15.50;99.90
10388;DHT22;5240;51.128;4.566;2023-05-07T03:30:48;15.50;99.90
10388;DHT22;5240;51.128;4.566;2023-05-07T03:33:16;15.50;99.90
10388;DHT22;5240;51.128;4.566;2023-05-07T03:35:43;15.30;99.90
10388;DHT22;5240;51.128;4.566;2023-05-07T03:38:10;15.50;99.90
10388;DHT22;5240;51.128;4.566;2023-05-07T03:40:38;15.50;99.90
10388;DHT22;5240;51.128;4.566;2023-05-07T03:43:05;15.50;99.90
10388;DHT22;5240;51.128;4.566;2023-05-07T03:45:32;15.60;99.90
10388;DHT22;5240;51.128;4.566;2023-05-07T03:47:59;15.60;99.90
10388;DHT22;5240;51.128;4.566;2023-05-07T03:50:26;15.60;99.90
10388;DHT22;5240;51.128;4.566;2023-05-07T03:52:53;15.70;99.90
10388;DHT22;5240;51.128;4.566;2023-05-07T03:55:20;15.20;99.90
10388;DHT22;5240;51.128;4.566;2023-05-07T03:57:48;15.70;99.90
10388;DHT22;5240;51.128;4.566;2023-05-07T04:00:16;15.70;99.90
10388;DHT22;5240;51.128;4.566;2023-05-07T04:02:43;15.70;99.90
10388;DHT22;5240;51.128;4.566;2023-05-07T04:05:10;15.70;99.90
10388;DHT22;5240;51.128;4.566;2023-05-07T04:07:37;15.60;99.90
10388;DHT22;5240;51.128;4.566;2023-05-07T04:10:04;15.70;99.90
10388;DHT22;5240;51.128;4.566;2023-05-07T04:12:32;15.60;99.90
10388;DHT22;5240;51.128;4.566;2023-05-07T04:15:00;15.50;99.90
10388;DHT22;5240;51.128;4.566;2023-05-07T04:17:27;15.50;99.90
10388;DHT22;5240;51.128;4.566;2023-05-07T04:19:54;15.70;99.90
10388;DHT22;5240;51.128;4.566;2023-05-07T04:22:21;15.40;99.90
10388;DHT22;5240;51.128;4.566;2023-05-07T04:24:48;15.50;99.90
10388;DHT22;5240;51.128;4.566;2023-05-07T04:27:15;15.40;99.90
10388;DHT22;5240;51.128;4.566;2023-05-07T04:29:42;15.40;99.90
10388;DHT22;5240;51.128;4.566;2023-05-07T04:32:14;15.40;99.90
10388;DHT22;5240;51.128;4.566;2023-05-07T04:34:41;15.40;99.90
10388;DHT22;5240;51.128;4.566;2023-05-07T04:37:08;15.40;99.90
10388;DHT22;5240;51.128;4.566;2023-05-07T04:39:35;15.40;99.90
10388;DHT22;5240;51.128;4.566;2023-05-07T04:42:02;15.50;99.90
10388;DHT22;5240;51.128;4.566;2023-05-07T04:44:29;15.40;99.90
10388;DHT22;5240;51.128;4.566;2023-05-07T04:46:57;15.40;99.90
10388;DHT22;5240;51.128;4.566;2023-05-07T04:49:26;15.40;99.90
10388;DHT22;5240;51.128;4.566;2023-05-07T04:51:53;15.40;99.90
10388;DHT22;5240;51.128;4.566;2023-05-07T04:54:20;15.70;99.90
10388;DHT22;5240;51.128;4.566;2023-05-07T04:56:47;15.50;99.90
10388;DHT22;5240;51.128;4.566;2023-05-07T04:59:14;15.50;99.90
10388;DHT22;5240;51.128;4.566;2023-05-07T05:01:40;15.40;99.90
10388;DHT22;5240;51.128;4.566;2023-05-07T05:04:07;15.50;99.90
10388;DHT22;5240;51.128;4.566;2023-05-07T05:06:37;15.50;99.90
10388;DHT22;5240;51.128;4.566;2023-05-07T05:09:04;15.60;99.90
10388;DHT22;5240;51.128;4.566;2023-05-07T05:11:31;15.50;99.90
10388;DHT22;5240;51.128;4.566;2023-05-07T05:13:59;15.40;99.90
10388;DHT22;5240;51.128;4.566;2023-05-07T05:16:27;15.50;99.90
10388;DHT22;5240;51.128;4.566;2023-05-07T05:18:54;15.40;99.90
10388;DHT22;5240;51.128;4.566;2023-05-07T05:21:21;15.50;99.90
10388;DHT22;5240;51.128;4.566;2023-05-07T05:23:50;15.60;99.90
10388;DHT22;5240;51.128;4.566;2023-05-07T05:26:17;15.70;99.90
10388;DHT22;5240;51.128;4.566;2023-05-07T05:28:44;15.70;99.90
10388;DHT22;5240;51.128;4.566;2023-05-07T05:31:11;15.70;99.90
10388;DHT22;5240;51.128;4.566;2023-05-07T05:33:39;15.90;99.90
10388;DHT22;5240;51.128;4.566;2023-05-07T05:36:09;15.80;99.90
10388;DHT22;5240;51.128;4.566;2023-05-07T05:38:37;15.70;99.90
10388;DHT22;5240;51.128;4.566;2023-05-07T05:41:06;15.70;99.90
10388;DHT22;5240;51.128;4.566;2023-05-07T05:43:33;15.80;99.90
10388;DHT22;5240;51.128;4.566;2023-05-07T05:46:00;15.70;99.90
10388;DHT22;5240;51.128;4.566;2023-05-07T05:48:28;15.70;99.90
10388;DHT22;5240;51.128;4.566;2023-05-07T05:53:22;16.00;99.90
10388;DHT22;5240;51.128;4.566;2023-05-07T05:55:49;16.00;99.90
10388;DHT22;5240;51.128;4.566;2023-05-07T05:58:18;16.00;99.90
10388;DHT22;5240;51.128;4.566;2023-05-07T06:00:46;16.10;99.90
10388;DHT22;5240;51.128;4.566;2023-05-07T06:03:13;16.30;99.90
10388;DHT22;5240;51.128;4.566;2023-05-07T06:05:40;16.10;99.90
10388;DHT22;5240;51.128;4.566;2023-05-07T06:08:07;16.10;99.90
10388;DHT22;5240;51.128;4.566;2023-05-07T06:10:36;16.10;99.90
10388;DHT22;5240;51.128;4.566;2023-05-07T06:13:03;16.20;99.90
10388;DHT22;5240;51.128;4.566;2023-05-07T06:15:31;16.30;99.90
10388;DHT22;5240;51.128;4.566;2023-05-07T06:17:58;16.30;99.90
10388;DHT22;5240;51.128;4.566;2023-05-07T06:20:25;16.30;99.90
10388;DHT22;5240;51.128;4.566;2023-05-07T06:22:52;16.40;99.90
10388;DHT22;5240;51.128;4.566;2023-05-07T06:25:19;16.60;99.90
10388;DHT22;5240;51.128;4.566;2023-05-07T06:27:46;16.30;99.90
10388;DHT22;5240;51.128;4.566;2023-05-07T06:30:13;16.50;99.90
10388;DHT22;5240;51.128;4.566;2023-05-07T06:32:42;16.30;99.90
10388;DHT22;5240;51.128;4.566;2023-05-07T06:35:09;16.60;99.90
10388;DHT22;5240;51.128;4.566;2023-05-07T06:37:36;16.50;99.90
10388;DHT22;5240;51.128;4.566;2023-05-07T06:40:05;16.80;99.90
10388;DHT22;5240;51.128;4.566;2023-05-07T06:42:32;16.60;99.90
10388;DHT22;5240;51.128;4.566;2023-05-07T06:44:59;16.60;99.90
10388;DHT22;5240;51.128;4.566;2023-05-07T06:47:26;16.60;99.90
10388;DHT22;5240;51.128;4.566;2023-05-07T06:49:55;17.00;99.90
10388;DHT22;5240;51.128;4.566;2023-05-07T06:52:22;16.90;99.90
10388;DHT22;5240;51.128;4.566;2023-05-07T06:54:49;16.90;99.90
10388;DHT22;5240;51.128;4.566;2023-05-07T06:57:16;16.80;99.90
10388;DHT22;5240;51.128;4.566;2023-05-07T06:59:43;16.80;99.90
10388;DHT22;5240;51.128;4.566;2023-05-07T07:02:10;16.80;99.90
10388;DHT22;5240;51.128;4.566;2023-05-07T07:04:37;16.60;99.90
10388;DHT22;5240;51.128;4.566;2023-05-07T07:07:06;16.50;99.90
10388;DHT22;5240;51.128;4.566;2023-05-07T07:09:33;16.50;99.90
10388;DHT22;5240;51.128;4.566;2023-05-07T07:12:00;16.50;99.90
10388;DHT22;5240;51.128;4.566;2023-05-07T07:14:27;16.40;99.90
10388;DHT22;5240;51.128;4.566;2023-05-07T07:16:54;16.50;99.90
10388;DHT22;5240;51.128;4.566;2023-05-07T07:19:21;16.60;99.90
10388;DHT22;5240;51.128;4.566;2023-05-07T07:21:48;16.60;99.90
10388;DHT22;5240;51.128;4.566;2023-05-07T07:24:16;16.70;99.90
10388;DHT22;5240;51.128;4.566;2023-05-07T07:26:46;17.00;99.90
10388;DHT22;5240;51.128;4.566;2023-05-07T07:29:13;17.30;99.90
10388;DHT22;5240;51.128;4.566;2023-05-07T07:31:43;17.20;99.90
10388;DHT22;5240;51.128;4.566;2023-05-07T07:34:10;17.40;99.90
10388;DHT22;5240;51.128;4.566;2023-05-07T07:36:37;17.50;99.90
10388;DHT22;5240;51.128;4.566;2023-05-07T07:39:04;17.40;99.90
10388;DHT22;5240;51.128;4.566;2023-05-07T07:41:32;17.40;99.90
10388;DHT22;5240;51.128;4.566;2023-05-07T07:43:59;17.50;99.90
10388;DHT22;5240;51.128;4.566;2023-05-07T07:48:53;17.60;99.90
10388;DHT22;5240;51.128;4.566;2023-05-07T07:51:20;17.40;99.90
10388;DHT22;5240;51.128;4.566;2023-05-07T07:53:47;17.40;99.90
10388;DHT22;5240;51.128;4.566;2023-05-07T07:58:43;17.50;99.90
10388;DHT22;5240;51.128;4.566;2023-05-07T08:01:10;17.70;99.90
10388;DHT22;5240;51.128;4.566;2023-05-07T08:03:38;17.60;99.90
10388;DHT22;5240;51.128;4.566;2023-05-07T08:08:33;17.60;99.90
10388;DHT22;5240;51.128;4.566;2023-05-07T08:11:00;17.50;99.90
10388;DHT22;5240;51.128;4.566;2023-05-07T08:13:27;18.00;99.90
10388;DHT22;5240;51.128;4.566;2023-05-07T08:15:55;17.50;99.90
10388;DHT22;5240;51.128;4.566;2023-05-07T08:18:22;17.50;99.90
10388;DHT22;5240;51.128;4.566;2023-05-07T08:20:50;17.40;99.90
10388;DHT22;5240;51.128;4.566;2023-05-07T08:23:17;17.40;99.90
10388;DHT22;5240;51.128;4.566;2023-05-07T08:25:44;17.30;99.90
10388;DHT22;5240;51.128;4.566;2023-05-07T08:28:11;17.30;99.90
10388;DHT22;5240;51.128;4.566;2023-05-07T08:30:38;17.30;99.90
10388;DHT22;5240;51.128;4.566;2023-05-07T08:33:08;17.30;99.90
10388;DHT22;5240;51.128;4.566;2023-05-07T08:35:35;17.30;99.90
10388;DHT22;5240;51.128;4.566;2023-05-07T08:38:02;17.20;99.90
10388;DHT22;5240;51.128;4.566;2023-05-07T08:40:35;17.10;99.90
10388;DHT22;5240;51.128;4.566;2023-05-07T08:43:03;17.20;99.90
10388;DHT22;5240;51.128;4.566;2023-05-07T08:45:33;17.10;99.90
10388;DHT22;5240;51.128;4.566;2023-05-07T08:48:02;17.20;99.90
10388;DHT22;5240;51.128;4.566;2023-05-07T08:50:31;17.20;99.90
10388;DHT22;5240;51.128;4.566;2023-05-07T08:52:58;17.10;99.90
10388;DHT22;5240;51.128;4.566;2023-05-07T08:55:25;17.10;99.90
10388;DHT22;5240;51.128;4.566;2023-05-07T08:57:52;16.90;99.90
10388;DHT22;5240;51.128;4.566;2023-05-07T09:00:19;17.00;99.90
10388;DHT22;5240;51.128;4.566;2023-05-07T09:02:46;16.90;99.90
10388;DHT22;5240;51.128;4.566;2023-05-07T09:05:14;17.00;99.90
10388;DHT22;5240;51.128;4.566;2023-05-07T09:07:42;16.90;99.90
10388;DHT22;5240;51.128;4.566;2023-05-07T09:10:09;16.90;99.90
10388;DHT22;5240;51.128;4.566;2023-05-07T09:12:36;17.00;99.90
10388;DHT22;5240;51.128;4.566;2023-05-07T09:15:06;16.90;99.90
10388;DHT22;5240;51.128;4.566;2023-05-07T09:17:33;17.00;99.90
10388;DHT22;5240;51.128;4.566;2023-05-07T09:20:02;16.90;99.90
10388;DHT22;5240;51.128;4.566;2023-05-07T09:22:31;16.90;99.90
10388;DHT22;5240;51.128;4.566;2023-05-07T09:25:00;17.00;99.90
10388;DHT22;5240;51.128;4.566;2023-05-07T09:27:27;17.10;99.90
10388;DHT22;5240;51.128;4.566;2023-05-07T09:29:54;17.10;99.90
10388;DHT22;5240;51.128;4.566;2023-05-07T09:32:21;17.00;99.90
10388;DHT22;5240;51.128;4.566;2023-05-07T09:34:50;17.00;99.90
10388;DHT22;5240;51.128;4.566;2023-05-07T09:37:17;17.10;99.90
10388;DHT22;5240;51.128;4.566;2023-05-07T09:39:46;17.10;99.90
10388;DHT22;5240;51.128;4.566;2023-05-07T09:42:15;17.00;99.90
10388;DHT22;5240;51.128;4.566;2023-05-07T09:44:43;17.00;99.90
10388;DHT22;5240;51.128;4.566;2023-05-07T09:47:11;17.00;99.90
10388;DHT22;5240;51.128;4.566;2023-05-07T09:49:42;17.00;99.90
10388;DHT22;5240;51.128;4.566;2023-05-07T09:52:14;17.00;99.90
10388;DHT22;5240;51.128;4.566;2023-05-07T09:54:41;17.00;99.90
10388;DHT22;5240;51.128;4.566;2023-05-07T09:57:11;17.00;99.90
10388;DHT22;5240;51.128;4.566;2023-05-07T09:59:42;17.10;99.90
10388;DHT22;5240;51.128;4.566;2023-05-07T10:02:10;17.20;99.90
10388;DHT22;5240;51.128;4.566;2023-05-07T10:04:38;17.20;99.90
10388;DHT22;5240;51.128;4.566;2023-05-07T10:07:07;17.20;99.90
10388;DHT22;5240;51.128;4.566;2023-05-07T10:09:36;17.20;99.90
10388;DHT22;5240;51.128;4.566;2023-05-07T10:12:05;17.20;99.90
10388;DHT22;5240;51.128;4.566;2023-05-07T10:14:32;17.20;99.90
10388;DHT22;5240;51.128;4.566;2023-05-07T10:17:02;17.20;99.90
10388;DHT22;5240;51.128;4.566;2023-05-07T10:19:29;17.20;99.90
10388;DHT22;5240;51.128;4.566;2023-05-07T10:22:03;17.20;99.90
10388;DHT22;5240;51.128;4.566;2023-05-07T10:24:33;17.20;99.90
10388;DHT22;5240;51.128;4.566;2023-05-07T10:27:02;17.20;99.90
10388;DHT22;5240;51.128;4.566;2023-05-07T10:29:36;17.10;99.90
10388;DHT22;5240;51.128;4.566;2023-05-07T10:32:19;17.20;99.90
10388;DHT22;5240;51.128;4.566;2023-05-07T10:34:56;17.30;99.90
10388;DHT22;5240;51.128;4.566;2023-05-07T10:37:25;17.20;99.90
10388;DHT22;5240;51.128;4.566;2023-05-07T10:39:52;17.20;99.90
10388;DHT22;5240;51.128;4.566;2023-05-07T10:42:19;17.20;99.90
10388;DHT22;5240;51.128;4.566;2023-05-07T10:44:46;17.20;99.90
10388;DHT22;5240;51.128;4.566;2023-05-07T10:47:16;17.30;99.90
10388;DHT22;5240;51.128;4.566;2023-05-07T10:50:20;17.20;99.90
10388;DHT22;5240;51.128;4.566;2023-05-07T10:53:23;17.20;99.90
10388;DHT22;5240;51.128;4.566;2023-05-07T10:58:43;17.30;99.90
10388;DHT22;5240;51.128;4.566;2023-05-07T11:01:10;17.20;99.90
10388;DHT22;5240;51.128;4.566;2023-05-07T11:04:13;17.20;99.90
10388;DHT22;5240;51.128;4.566;2023-05-07T11:06:41;17.20;99.90
10388;DHT22;5240;51.128;4.566;2023-05-07T11:09:09;17.10;99.90
10388;DHT22;5240;51.128;4.566;2023-05-07T11:11:45;17.20;99.90
10388;DHT22;5240;51.128;4.566;2023-05-07T11:14:13;17.30;99.90
10388;DHT22;5240;51.128;4.566;2023-05-07T11:16:42;17.40;99.90
10388;DHT22;5240;51.128;4.566;2023-05-07T11:19:09;17.30;99.90
10388;DHT22;5240;51.128;4.566;2023-05-07T11:21:37;17.40;99.90
10388;DHT22;5240;51.128;4.566;2023-05-07T11:24:06;17.30;99.90
10388;DHT22;5240;51.128;4.566;2023-05-07T11:26:48;17.40;99.90
10388;DHT22;5240;51.128;4.566;2023-05-07T11:29:16;17.50;99.90
10388;DHT22;5240;51.128;4.566;2023-05-07T11:31:48;17.40;99.90
10388;DHT22;5240;51.128;4.566;2023-05-07T11:34:21;17.40;99.90
10388;DHT22;5240;51.128;4.566;2023-05-07T11:36:49;17.50;99.90
10388;DHT22;5240;51.128;4.566;2023-05-07T11:39:29;17.60;99.90
10388;DHT22;5240;51.128;4.566;2023-05-07T11:41:59;17.60;99.90
10388;DHT22;5240;51.128;4.566;2023-05-07T11:44:42;17.70;99.90
10388;DHT22;5240;51.128;4.566;2023-05-07T11:47:11;17.80;99.90
10388;DHT22;5240;51.128;4.566;2023-05-07T11:49:38;17.70;99.90
10388;DHT22;5240;51.128;4.566;2023-05-07T11:52:06;17.60;99.90
10388;DHT22;5240;51.128;4.566;2023-05-07T11:54:35;17.60;99.90
10388;DHT22;5240;51.128;4.566;2023-05-07T11:57:04;17.60;99.90
10388;DHT22;5240;51.128;4.566;2023-05-07T11:59:38;17.60;99.90
10388;DHT22;5240;51.128;4.566;2023-05-07T12:02:06;17.70;99.90
10388;DHT22;5240;51.128;4.566;2023-05-07T12:04:33;17.80;99.90
10388;DHT22;5240;51.128;4.566;2023-05-07T12:07:00;17.70;99.90
10388;DHT22;5240;51.128;4.566;2023-05-07T12:09:27;18.00;99.90
10388;DHT22;5240;51.128;4.566;2023-05-07T12:11:55;18.00;99.90
10388;DHT22;5240;51.128;4.566;2023-05-07T12:14:27;18.00;99.90
10388;DHT22;5240;51.128;4.566;2023-05-07T12:16:54;18.20;99.90
10388;DHT22;5240;51.128;4.566;2023-05-07T12:19:22;18.10;99.90
10388;DHT22;5240;51.128;4.566;2023-05-07T12:21:49;18.10;99.90
10388;DHT22;5240;51.128;4.566;2023-05-07T12:24:16;18.20;99.90
10388;DHT22;5240;51.128;4.566;2023-05-07T12:26:43;18.50;99.90
10388;DHT22;5240;51.128;4.566;2023-05-07T12:29:10;18.60;99.90
10388;DHT22;5240;51.128;4.566;2023-05-07T12:31:42;18.60;99.90
10388;DHT22;5240;51.128;4.566;2023-05-07T12:34:10;18.60;99.90
10388;DHT22;5240;51.128;4.566;2023-05-07T12:36:38;18.60;99.90
10388;DHT22;5240;51.128;4.566;2023-05-07T12:39:05;18.50;99.90
10388;DHT22;5240;51.128;4.566;2023-05-07T12:41:36;18.40;99.90
10388;DHT22;5240;51.128;4.566;2023-05-07T12:46:31;18.60;99.90
10388;DHT22;5240;51.128;4.566;2023-05-07T12:49:00;18.90;99.90
10388;DHT22;5240;51.128;4.566;2023-05-07T12:51:28;19.20;99.90
10388;DHT22;5240;51.128;4.566;2023-05-07T12:53:56;19.00;99.90
10388;DHT22;5240;51.128;4.566;2023-05-07T12:56:23;18.90;99.90
10388;DHT22;5240;51.128;4.566;2023-05-07T12:58:50;19.10;99.90
10388;DHT22;5240;51.128;4.566;2023-05-07T13:23:31;19.70;99.90
10388;DHT22;5240;51.128;4.566;2023-05-07T13:25:58;20.00;99.90
10388;DHT22;5240;51.128;4.566;2023-05-07T13:28:25;20.30;99.90
10388;DHT22;5240;51.128;4.566;2023-05-07T13:30:53;20.00;99.90
10388;DHT22;5240;51.128;4.566;2023-05-07T13:33:20;20.20;99.90
10388;DHT22;5240;51.128;4.566;2023-05-07T13:35:47;20.30;99.90
10388;DHT22;5240;51.128;4.566;2023-05-07T13:38:14;20.30;99.90
10388;DHT22;5240;51.128;4.566;2023-05-07T13:40:43;19.60;99.90
10388;DHT22;5240;51.128;4.566;2023-05-07T13:43:10;20.30;99.90
10388;DHT22;5240;51.128;4.566;2023-05-07T13:45:37;20.50;99.90
10388;DHT22;5240;51.128;4.566;2023-05-07T13:48:04;20.30;99.90
10388;DHT22;5240;51.128;4.566;2023-05-07T13:50:31;20.10;99.90
10388;DHT22;5240;51.128;4.566;2023-05-07T13:52:58;20.30;99.90
10388;DHT22;5240;51.128;4.566;2023-05-07T13:55:25;20.20;99.90
10388;DHT22;5240;51.128;4.566;2023-05-07T13:57:57;20.20;99.90
10388;DHT22;5240;51.128;4.566;2023-05-07T14:00:25;20.00;99.90
10388;DHT22;5240;51.128;4.566;2023-05-07T14:02:52;20.30;99.90
10388;DHT22;5240;51.128;4.566;2023-05-07T14:05:19;20.20;99.90
10388;DHT22;5240;51.128;4.566;2023-05-07T14:07:49;20.00;99.90
10388;DHT22;5240;51.128;4.566;2023-05-07T14:10:17;20.10;99.90
10388;DHT22;5240;51.128;4.566;2023-05-07T14:12:44;20.10;99.90
10388;DHT22;5240;51.128;4.566;2023-05-07T14:15:13;19.80;99.90
10388;DHT22;5240;51.128;4.566;2023-05-07T14:17:40;19.80;99.90
10388;DHT22;5240;51.128;4.566;2023-05-07T14:20:08;19.70;99.90
10388;DHT22;5240;51.128;4.566;2023-05-07T14:22:36;19.90;99.90
10388;DHT22;5240;51.128;4.566;2023-05-07T14:25:06;19.70;99.90
10388;DHT22;5240;51.128;4.566;2023-05-07T14:27:35;19.60;99.90
10388;DHT22;5240;51.128;4.566;2023-05-07T14:30:02;19.70;99.90
10388;DHT22;5240;51.128;4.566;2023-05-07T14:32:31;19.80;99.90
10388;DHT22;5240;51.128;4.566;2023-05-07T14:34:58;19.50;99.90
10388;DHT22;5240;51.128;4.566;2023-05-07T14:37:26;19.50;99.90
10388;DHT22;5240;51.128;4.566;2023-05-07T14:39:53;19.60;99.90
10388;DHT22;5240;51.128;4.566;2023-05-07T14:42:20;20.10;99.90
10388;DHT22;5240;51.128;4.566;2023-05-07T14:44:47;19.80;99.90
10388;DHT22;5240;51.128;4.566;2023-05-07T14:47:14;20.10;99.90
10388;DHT22;5240;51.128;4.566;2023-05-07T14:49:42;20.00;99.90
10388;DHT22;5240;51.128;4.566;2023-05-07T14:52:09;20.00;99.90
10388;DHT22;5240;51.128;4.566;2023-05-07T14:54:37;19.80;99.90
10388;DHT22;5240;51.128;4.566;2023-05-07T14:57:05;20.10;99.90
10388;DHT22;5240;51.128;4.566;2023-05-07T14:59:32;19.90;99.90
10388;DHT22;5240;51.128;4.566;2023-05-07T15:01:59;19.70;99.90
10388;DHT22;5240;51.128;4.566;2023-05-07T15:04:27;19.70;99.90
10388;DHT22;5240;51.128;4.566;2023-05-07T15:06:55;19.70;99.90
10388;DHT22;5240;51.128;4.566;2023-05-07T15:09:22;19.60;99.90
10388;DHT22;5240;51.128;4.566;2023-05-07T15:11:49;20.00;99.90
10388;DHT22;5240;51.128;4.566;2023-05-07T15:14:16;19.80;99.90
10388;DHT22;5240;51.128;4.566;2023-05-07T15:16:43;19.80;99.90
10388;DHT22;5240;51.128;4.566;2023-05-07T15:19:10;19.80;99.90
10388;DHT22;5240;51.128;4.566;2023-05-07T15:21:37;20.60;99.90
10388;DHT22;5240;51.128;4.566;2023-05-07T15:24:07;20.00;99.90
10388;DHT22;5240;51.128;4.566;2023-05-07T15:26:34;19.80;99.90
10388;DHT22;5240;51.128;4.566;2023-05-07T15:29:01;19.90;99.90
10388;DHT22;5240;51.128;4.566;2023-05-07T15:31:30;20.00;99.90
10388;DHT22;5240;51.128;4.566;2023-05-07T15:33:57;19.60;99.90
10388;DHT22;5240;51.128;4.566;2023-05-07T15:36:26;19.70;99.90
10388;DHT22;5240;51.128;4.566;2023-05-07T15:38:53;19.40;99.90
10388;DHT22;5240;51.128;4.566;2023-05-07T15:41:22;19.00;99.90
10388;DHT22;5240;51.128;4.566;2023-05-07T15:43:50;19.20;99.90
10388;DHT22;5240;51.128;4.566;2023-05-07T15:46:18;19.40;99.90
10388;DHT22;5240;51.128;4.566;2023-05-07T15:48:45;19.50;99.90
10388;DHT22;5240;51.128;4.566;2023-05-07T15:51:12;19.40;99.90
10388;DHT22;5240;51.128;4.566;2023-05-07T15:53:40;19.50;99.90
10388;DHT22;5240;51.128;4.566;2023-05-07T15:56:07;19.80;99.90
10388;DHT22;5240;51.128;4.566;2023-05-07T15:58:35;19.70;99.90
10388;DHT22;5240;51.128;4.566;2023-05-07T16:01:03;19.80;99.90
10388;DHT22;5240;51.128;4.566;2023-05-07T16:03:30;19.70;99.90
10388;DHT22;5240;51.128;4.566;2023-05-07T16:05:58;19.40;99.90
10388;DHT22;5240;51.128;4.566;2023-05-07T16:08:25;19.70;99.90
10388;DHT22;5240;51.128;4.566;2023-05-07T16:10:53;19.60;99.90
10388;DHT22;5240;51.128;4.566;2023-05-07T16:13:20;19.40;99.90
10388;DHT22;5240;51.128;4.566;2023-05-07T16:15:55;19.90;99.90
10388;DHT22;5240;51.128;4.566;2023-05-07T16:18:23;19.60;99.90
10388;DHT22;5240;51.128;4.566;2023-05-07T16:20:50;19.80;99.90
10388;DHT22;5240;51.128;4.566;2023-05-07T16:23:17;19.60;99.90
10388;DHT22;5240;51.128;4.566;2023-05-07T16:25:44;19.60;99.90
10388;DHT22;5240;51.128;4.566;2023-05-07T16:28:11;19.80;99.90